createdAt,value
2022-08-26T00:00:20.839Z,56.50
2022-08-26T00:02:49.202Z,56.70
2022-08-26T00:07:46.707Z,56.90
2022-08-26T00:10:15.358Z,57.00
2022-08-26T00:12:45.318Z,57.20
2022-08-26T00:15:19.164Z,57.30
2022-08-26T00:17:49.829Z,57.40
2022-08-26T00:20:22.826Z,57.50
2022-08-26T00:25:20.539Z,57.70
2022-08-26T00:27:50.670Z,57.90
2022-08-26T00:30:26.597Z,57.90
2022-08-26T00:32:56.069Z,58.00
2022-08-26T00:35:25.616Z,58.10
2022-08-26T00:37:57.418Z,58.20
2022-08-26T00:40:31.417Z,58.30
2022-08-26T00:43:02.351Z,58.40
2022-08-26T00:45:45.111Z,58.50
2022-08-26T00:48:17.034Z,58.50
2022-08-26T00:50:54.397Z,58.70
2022-08-26T00:53:26.299Z,58.80
2022-08-26T00:56:02.569Z,58.90
2022-08-26T00:58:35.092Z,59.00
2022-08-26T01:01:04.081Z,59.10
2022-08-26T01:03:35.026Z,59.20
2022-08-26T01:06:05.278Z,59.40
2022-08-26T01:08:42.060Z,59.50
2022-08-26T01:11:12.555Z,59.70
2022-08-26T01:16:15.613Z,59.90
2022-08-26T01:18:46.943Z,60.00
2022-08-26T01:21:27.202Z,60.30
2022-08-26T01:23:58.913Z,60.40
2022-08-26T01:26:34.433Z,60.60
2022-08-26T01:29:07.929Z,60.80
2022-08-26T01:31:42.335Z,61.00
2022-08-26T01:34:18.832Z,61.10
2022-08-26T01:36:51.582Z,61.30
2022-08-26T01:39:21.901Z,61.30
2022-08-26T01:41:53.855Z,61.50
2022-08-26T01:44:26.833Z,61.60
2022-08-26T01:46:58.061Z,61.70
2022-08-26T01:49:27.882Z,61.80
2022-08-26T01:52:02.020Z,62.00
2022-08-26T01:54:34.264Z,62.00
2022-08-26T01:57:03.845Z,62.10
2022-08-26T01:59:32.758Z,62.20
2022-08-26T02:02:01.593Z,62.30
2022-08-26T02:04:34.839Z,62.40
2022-08-26T02:07:07.761Z,62.50
2022-08-26T02:09:41.357Z,62.60
2022-08-26T02:12:11.739Z,62.50
2022-08-26T02:14:46.666Z,62.60
2022-08-26T02:17:15.697Z,62.70
2022-08-26T02:19:51.388Z,62.80
2022-08-26T02:22:24.703Z,62.90
2022-08-26T02:24:58.565Z,62.90
2022-08-26T02:27:32.841Z,63.00
2022-08-26T02:30:11.093Z,63.10
2022-08-26T02:32:40.316Z,63.20
2022-08-26T02:35:11.174Z,63.30
2022-08-26T02:37:39.765Z,63.50
2022-08-26T02:40:15.887Z,63.50
2022-08-26T02:45:13.468Z,63.60
2022-08-26T02:47:45.954Z,63.70
2022-08-26T02:50:15.737Z,63.90
2022-08-26T02:52:45.292Z,64.10
2022-08-26T02:55:15.716Z,64.10
2022-08-26T02:57:44.183Z,64.20
2022-08-26T03:00:16.345Z,64.40
2022-08-26T03:05:14.244Z,64.40
2022-08-26T03:07:45.183Z,64.50
2022-08-26T03:10:16.366Z,64.60
2022-08-26T03:12:47.453Z,64.60
2022-08-26T03:15:19.400Z,64.70
2022-08-26T03:17:50.239Z,64.80
2022-08-26T03:20:19.516Z,64.90
2022-08-26T03:25:22.449Z,65.10
2022-08-26T03:27:52.365Z,65.30
2022-08-26T03:30:38.725Z,65.50
2022-08-26T03:33:15.020Z,65.60
2022-08-26T03:35:45.697Z,65.70
2022-08-26T03:38:14.482Z,65.90
2022-08-26T03:40:44.830Z,65.90
2022-08-26T03:43:15.939Z,66.10
2022-08-26T03:48:14.447Z,66.10
2022-08-26T03:50:43.845Z,66.10
2022-08-26T03:53:12.861Z,66.20
2022-08-26T03:55:43.641Z,66.20
2022-08-26T03:58:12.518Z,66.30
2022-08-26T04:00:40.899Z,66.40
2022-08-26T04:03:14.740Z,66.40
2022-08-26T04:08:15.383Z,66.50
2022-08-26T04:10:45.172Z,66.50
2022-08-26T04:13:13.776Z,66.60
2022-08-26T04:15:42.220Z,66.70
2022-08-26T04:18:10.677Z,66.80
2022-08-26T04:23:08.075Z,67.00
2022-08-26T04:25:36.549Z,66.90
2022-08-26T04:28:10.593Z,67.10
2022-08-26T04:30:39.565Z,67.10
2022-08-26T04:33:13.183Z,67.20
2022-08-26T04:35:44.014Z,67.20
2022-08-26T04:40:46.755Z,67.40
2022-08-26T04:43:16.817Z,67.40
2022-08-26T04:45:45.260Z,67.40
2022-08-26T04:48:16.828Z,67.40
2022-08-26T04:50:45.407Z,67.40
2022-08-26T04:53:18.112Z,67.30
2022-08-26T04:55:46.667Z,67.40
2022-08-26T04:58:20.821Z,67.40
2022-08-26T05:00:51.531Z,67.40
2022-08-26T05:03:20.885Z,67.40
2022-08-26T05:05:50.893Z,67.50
2022-08-26T05:08:22.532Z,67.40
2022-08-26T05:10:55.899Z,67.40
2022-08-26T05:13:28.590Z,67.40
2022-08-26T05:16:00.557Z,67.40
2022-08-26T05:18:29.984Z,67.40
2022-08-26T05:20:58.420Z,67.30
2022-08-26T05:23:27.148Z,67.30
2022-08-26T05:25:59.245Z,67.40
2022-08-26T05:28:31.203Z,67.40
2022-08-26T05:31:00.553Z,67.40
2022-08-26T05:33:29.424Z,67.40
2022-08-26T05:35:57.924Z,67.50
2022-08-26T05:38:30.316Z,67.60
2022-08-26T05:40:59.000Z,67.70
2022-08-26T05:43:29.716Z,67.80
2022-08-26T05:46:07.751Z,67.90
2022-08-26T05:48:36.373Z,68.00
2022-08-26T05:51:08.781Z,68.20
2022-08-26T05:53:38.649Z,68.20
2022-08-26T05:56:09.327Z,68.30
2022-08-26T05:58:42.426Z,68.20
2022-08-26T06:01:17.429Z,68.20
2022-08-26T06:03:50.053Z,68.10
2022-08-26T06:06:27.212Z,68.10
2022-08-26T06:08:59.530Z,68.20
2022-08-26T06:11:30.562Z,68.00
2022-08-26T06:14:04.356Z,68.00
2022-08-26T06:16:36.301Z,68.00
2022-08-26T06:19:10.747Z,67.90
2022-08-26T06:21:41.543Z,67.90
2022-08-26T06:24:30.491Z,67.90
2022-08-26T06:27:02.160Z,67.70
2022-08-26T06:29:36.140Z,67.70
2022-08-26T06:32:06.778Z,67.60
2022-08-26T06:34:35.389Z,67.60
2022-08-26T06:37:06.466Z,67.60
2022-08-26T06:39:35.317Z,67.50
2022-08-26T06:42:08.876Z,67.60
2022-08-26T06:44:41.662Z,67.70
2022-08-26T06:47:13.285Z,67.60
2022-08-26T06:49:41.672Z,68.10
2022-08-26T06:52:10.084Z,67.60
2022-08-26T06:54:43.054Z,67.60
2022-08-26T06:57:13.118Z,67.50
2022-08-26T06:59:44.138Z,67.90
2022-08-26T07:02:13.433Z,67.80
2022-08-26T07:04:42.318Z,67.80
2022-08-26T07:07:14.759Z,67.70
2022-08-26T07:09:43.467Z,67.60
2022-08-26T07:12:11.842Z,67.10
2022-08-26T07:14:40.356Z,66.60
2022-08-26T07:17:14.335Z,66.30
2022-08-26T07:19:43.241Z,66.10
2022-08-26T07:22:11.601Z,65.90
2022-08-26T07:24:42.356Z,65.70
2022-08-26T07:27:15.110Z,65.30
2022-08-26T07:29:44.795Z,65.00
2022-08-26T07:32:22.945Z,65.00
2022-08-26T07:34:51.785Z,65.00
2022-08-26T07:37:20.413Z,64.90
2022-08-26T07:39:48.861Z,64.90
2022-08-26T07:42:19.669Z,64.40
2022-08-26T07:44:48.748Z,65.30
2022-08-26T07:47:24.760Z,64.60
2022-08-26T07:49:56.616Z,63.30
2022-08-26T07:52:27.549Z,63.60
2022-08-26T07:54:58.093Z,62.80
2022-08-26T07:57:27.155Z,62.20
2022-08-26T07:59:56.673Z,61.60
2022-08-26T08:02:28.088Z,60.90
2022-08-26T08:04:57.862Z,60.40
2022-08-26T08:07:44.286Z,60.40
2022-08-26T08:10:17.931Z,60.30
2022-08-26T08:12:48.064Z,60.20
2022-08-26T08:15:20.111Z,60.10
2022-08-26T08:17:51.560Z,59.70
2022-08-26T08:20:20.849Z,59.30
2022-08-26T08:22:49.965Z,58.80
2022-08-26T08:25:18.520Z,57.20
2022-08-26T08:27:48.614Z,57.40
2022-08-26T08:30:23.039Z,56.50
2022-08-26T08:32:53.524Z,55.90
2022-08-26T08:35:26.250Z,55.90
2022-08-26T08:37:56.577Z,56.10
2022-08-26T08:40:27.844Z,56.20
2022-08-26T08:43:04.826Z,56.20
2022-08-26T08:45:37.730Z,56.20
2022-08-26T08:48:15.231Z,56.00
2022-08-26T08:50:48.373Z,55.90
2022-08-26T08:53:22.656Z,55.70
2022-08-26T08:56:05.529Z,55.70
2022-08-26T08:58:51.470Z,55.60
2022-08-26T09:01:31.716Z,55.80
2022-08-26T09:04:24.941Z,54.70
2022-08-26T09:06:59.072Z,54.40
2022-08-26T09:09:32.350Z,54.20
2022-08-26T09:12:03.216Z,54.20
2022-08-26T09:14:32.949Z,53.50
2022-08-26T09:17:14.077Z,52.70
2022-08-26T09:19:50.476Z,51.90
2022-08-26T09:22:31.004Z,51.40
2022-08-26T09:24:59.684Z,51.70
2022-08-26T09:27:44.078Z,52.00
2022-08-26T09:30:16.566Z,51.90
2022-08-26T09:33:01.177Z,52.20
2022-08-26T09:35:34.585Z,52.50
2022-08-26T09:38:03.732Z,52.60
2022-08-26T09:40:35.244Z,52.00
2022-08-26T09:43:22.867Z,52.20
2022-08-26T09:45:59.284Z,51.40
2022-08-26T09:48:35.534Z,50.50
2022-08-26T09:51:24.073Z,50.00
2022-08-26T09:53:56.140Z,50.00
2022-08-26T09:56:29.946Z,50.30
2022-08-26T09:58:59.665Z,50.40
2022-08-26T10:01:34.889Z,50.70
2022-08-26T10:04:11.322Z,50.90
2022-08-26T10:06:56.928Z,51.20
2022-08-26T10:09:28.116Z,51.30
2022-08-26T10:12:03.457Z,51.40
2022-08-26T10:14:39.772Z,51.40
2022-08-26T10:17:15.850Z,51.50
2022-08-26T10:19:56.744Z,51.80
2022-08-26T10:22:34.154Z,51.30
2022-08-26T10:25:09.233Z,51.60
2022-08-26T10:27:49.744Z,50.60
2022-08-26T10:30:28.638Z,50.40
2022-08-26T10:33:03.462Z,50.30
2022-08-26T10:35:34.797Z,50.70
2022-08-26T10:38:13.131Z,50.40
2022-08-26T10:40:56.156Z,50.40
2022-08-26T10:43:31.081Z,50.50
2022-08-26T10:46:04.278Z,50.90
2022-08-26T10:48:43.491Z,51.20
2022-08-26T10:51:13.640Z,50.20
2022-08-26T10:53:55.938Z,50.50
2022-08-26T10:56:44.597Z,50.00
2022-08-26T10:59:26.513Z,49.60
2022-08-26T11:02:06.343Z,49.50
2022-08-26T11:04:51.704Z,49.80
2022-08-26T11:07:42.885Z,49.80
2022-08-26T11:11:01.093Z,49.50
2022-08-26T11:14:04.358Z,48.80
2022-08-26T11:16:43.574Z,47.70
2022-08-26T11:19:58.765Z,47.00
2022-08-26T11:22:31.061Z,46.90
2022-08-26T11:25:11.398Z,45.90
2022-08-26T11:28:07.585Z,46.20
2022-08-26T11:30:43.861Z,45.60
2022-08-26T11:33:32.724Z,45.20
2022-08-26T11:36:01.304Z,45.30
2022-08-26T11:38:45.167Z,45.20
2022-08-26T11:41:21.824Z,46.20
2022-08-26T11:43:52.258Z,46.00
2022-08-26T11:46:27.776Z,45.80
2022-08-26T11:49:05.214Z,45.40
2022-08-26T11:51:40.186Z,45.50
2022-08-26T11:54:16.274Z,45.30
2022-08-26T11:56:48.056Z,45.00
2022-08-26T11:59:25.184Z,44.80
2022-08-26T12:01:55.649Z,44.60
2022-08-26T12:04:31.236Z,44.60
2022-08-26T12:07:03.038Z,44.80
2022-08-26T12:09:37.827Z,44.90
2022-08-26T12:12:17.060Z,45.00
2022-08-26T12:14:46.068Z,44.90
2022-08-26T12:17:18.781Z,44.80
2022-08-26T12:19:47.817Z,44.60
2022-08-26T12:22:23.112Z,44.50
2022-08-26T12:24:58.472Z,44.40
2022-08-26T12:27:29.228Z,44.10
2022-08-26T12:30:10.107Z,43.60
2022-08-26T12:32:57.472Z,43.00
2022-08-26T12:35:28.788Z,43.30
2022-08-26T12:37:58.708Z,42.10
2022-08-26T12:40:41.915Z,42.30
2022-08-26T12:43:13.525Z,41.80
2022-08-26T12:45:45.436Z,41.40
2022-08-26T12:48:24.638Z,41.10
2022-08-26T12:50:54.159Z,40.80
2022-08-26T12:53:24.887Z,40.30
2022-08-26T12:55:57.229Z,40.00
2022-08-26T12:58:30.078Z,39.80
2022-08-26T13:01:20.235Z,39.50
2022-08-26T13:03:49.802Z,39.30
2022-08-26T13:06:31.234Z,39.00
2022-08-26T13:09:02.105Z,38.80
2022-08-26T13:11:35.562Z,38.60
2022-08-26T13:14:09.380Z,38.40
2022-08-26T13:16:41.640Z,38.20
2022-08-26T13:19:13.080Z,38.20
2022-08-26T13:21:47.980Z,38.60
2022-08-26T13:24:20.965Z,37.70
2022-08-26T13:26:51.526Z,37.50
2022-08-26T13:29:20.721Z,37.40
2022-08-26T13:31:49.781Z,36.90
2022-08-26T13:34:21.533Z,37.20
2022-08-26T13:36:51.741Z,37.10
2022-08-26T13:39:21.229Z,37.00
2022-08-26T13:41:51.480Z,37.00
2022-08-26T13:44:20.326Z,36.90
2022-08-26T13:46:49.040Z,36.60
2022-08-26T13:49:17.556Z,36.20
2022-08-26T13:51:46.042Z,36.10
2022-08-26T13:54:14.406Z,35.80
2022-08-26T13:56:42.790Z,35.80
2022-08-26T13:59:12.629Z,35.70
2022-08-26T14:01:41.029Z,35.50
2022-08-26T14:04:09.581Z,35.30
2022-08-26T14:06:38.236Z,34.90
2022-08-26T14:09:06.823Z,34.50
2022-08-26T14:11:50.853Z,34.20
2022-08-26T14:14:25.109Z,34.20
2022-08-26T14:17:00.128Z,34.10
2022-08-26T14:19:31.063Z,34.10
2022-08-26T14:22:01.400Z,34.30
2022-08-26T14:24:30.156Z,34.90
2022-08-26T14:26:58.593Z,34.50
2022-08-26T14:29:28.670Z,34.80
2022-08-26T14:31:58.919Z,35.20
2022-08-26T14:34:27.721Z,35.20
2022-08-26T14:36:56.084Z,35.20
2022-08-26T14:39:24.524Z,35.10
2022-08-26T14:41:56.746Z,35.20
2022-08-26T14:44:31.346Z,35.20
2022-08-26T14:47:03.416Z,35.60
2022-08-26T14:49:32.358Z,35.90
2022-08-26T14:52:00.780Z,36.20
2022-08-26T14:54:29.361Z,36.20
2022-08-26T14:57:02.042Z,36.30
2022-08-26T14:59:36.145Z,36.50
2022-08-26T15:02:06.178Z,36.50
2022-08-26T15:04:34.985Z,36.70
2022-08-26T15:07:04.865Z,36.80
2022-08-26T15:09:36.828Z,36.90
2022-08-26T15:12:06.560Z,37.10
2022-08-26T15:14:36.349Z,37.30
2022-08-26T15:17:05.317Z,37.70
2022-08-26T15:22:02.363Z,37.70
2022-08-26T15:24:30.732Z,39.80
2022-08-26T15:26:59.252Z,40.30
2022-08-26T15:29:27.836Z,40.60
2022-08-26T15:31:57.733Z,40.90
2022-08-26T15:34:26.854Z,41.40
2022-08-26T15:36:55.940Z,41.90
2022-08-26T15:39:24.757Z,42.40
2022-08-26T15:44:21.985Z,43.20
2022-08-26T15:46:55.348Z,43.80
2022-08-26T15:49:28.510Z,44.20
2022-08-26T15:56:54.516Z,46.00
2022-08-26T15:59:23.448Z,46.60
2022-08-26T16:04:21.957Z,47.50
2022-08-26T16:06:52.182Z,47.80
2022-08-26T16:09:24.322Z,48.30
2022-08-26T16:11:53.295Z,48.60
2022-08-26T16:14:22.480Z,49.00
2022-08-26T16:19:20.067Z,49.80
2022-08-26T16:21:50.693Z,50.00
2022-08-26T16:24:24.860Z,50.20
2022-08-26T16:26:55.354Z,50.40
2022-08-26T16:29:24.492Z,50.50
2022-08-26T16:31:54.611Z,50.70
2022-08-26T16:34:23.317Z,50.80
2022-08-26T16:36:53.063Z,51.00
2022-08-26T16:39:22.787Z,51.00
2022-08-26T16:44:19.832Z,51.30
2022-08-26T16:46:48.297Z,51.30
2022-08-26T16:51:45.505Z,51.40
2022-08-26T16:56:44.297Z,51.80
2022-08-26T16:59:12.925Z,51.80
2022-08-26T17:04:10.125Z,51.30
2022-08-26T17:06:38.550Z,51.30
2022-08-26T17:11:36.019Z,51.60
2022-08-26T17:14:06.590Z,52.00
2022-08-26T17:16:35.344Z,52.50
2022-08-26T17:19:05.537Z,52.80
2022-08-26T17:21:35.719Z,53.10
2022-08-26T17:24:05.899Z,53.50
2022-08-26T17:26:34.498Z,53.80
2022-08-26T17:31:33.089Z,54.30
2022-08-26T17:34:01.504Z,54.60
2022-08-26T17:36:30.061Z,55.00
2022-08-26T17:38:59.533Z,55.10
2022-08-26T17:41:28.785Z,55.20
2022-08-26T17:43:57.486Z,55.40
2022-08-26T17:46:26.602Z,55.60
2022-08-26T17:48:56.849Z,55.80
2022-08-26T17:51:25.396Z,56.00
2022-08-26T17:53:54.002Z,56.20
2022-08-26T17:56:25.477Z,56.40
2022-08-26T18:01:27.559Z,56.70
2022-08-26T18:04:00.441Z,56.90
2022-08-26T18:08:59.429Z,57.10
2022-08-26T18:11:28.585Z,57.20
2022-08-26T18:13:56.948Z,57.30
2022-08-26T18:18:55.921Z,57.50
2022-08-26T18:21:28.831Z,57.60
2022-08-26T18:23:57.806Z,57.60
2022-08-26T18:26:29.645Z,57.70
2022-08-26T18:31:27.762Z,57.90
2022-08-26T18:34:00.197Z,57.90
2022-08-26T18:36:31.477Z,58.00
2022-08-26T18:39:00.570Z,58.10
2022-08-26T18:41:33.387Z,58.20
2022-08-26T18:44:01.960Z,58.20
2022-08-26T18:46:30.462Z,58.30
2022-08-26T18:49:00.337Z,58.40
2022-08-26T18:51:31.897Z,58.50
2022-08-26T18:54:02.487Z,58.70
2022-08-26T18:56:31.374Z,58.80
2022-08-26T18:59:00.097Z,59.00
2022-08-26T19:01:34.043Z,59.10
2022-08-26T19:04:06.501Z,59.20
2022-08-26T19:06:36.917Z,59.30
2022-08-26T19:09:08.908Z,59.40
2022-08-26T19:11:38.358Z,59.60
2022-08-26T19:14:14.207Z,59.70
2022-08-26T19:16:44.808Z,59.90
2022-08-26T19:19:15.376Z,60.10
2022-08-26T19:21:44.117Z,60.30
2022-08-26T19:24:17.359Z,60.50
2022-08-26T19:26:48.932Z,60.70
2022-08-26T19:29:20.517Z,60.80
2022-08-26T19:31:49.048Z,61.00
2022-08-26T19:34:20.686Z,61.20
2022-08-26T19:39:18.845Z,61.40
2022-08-26T19:41:47.805Z,61.50
2022-08-26T19:44:51.235Z,61.50
2022-08-26T19:47:19.668Z,61.70
2022-08-26T19:49:53.376Z,61.80
2022-08-26T19:52:22.583Z,61.90
2022-08-26T19:59:55.678Z,62.10
2022-08-26T20:04:54.424Z,62.30
2022-08-26T20:07:23.084Z,62.40
2022-08-26T20:09:51.558Z,62.60
2022-08-26T20:14:48.725Z,62.80
2022-08-26T20:20:03.469Z,63.00
2022-08-26T20:22:34.122Z,63.10
2022-08-26T20:27:38.035Z,63.30
2022-08-26T20:30:10.262Z,63.30
2022-08-26T20:32:39.734Z,63.40
2022-08-26T20:35:12.028Z,63.50
2022-08-26T20:37:42.908Z,63.60
2022-08-26T20:40:13.891Z,63.70
2022-08-26T20:42:42.493Z,63.70
2022-08-26T20:45:11.905Z,63.80
2022-08-26T20:50:10.120Z,64.00
2022-08-26T20:52:38.559Z,64.10
2022-08-26T20:55:09.921Z,64.20
2022-08-26T21:00:08.465Z,64.30
2022-08-26T21:05:06.991Z,64.60
2022-08-26T21:07:35.958Z,64.80
2022-08-26T21:10:04.954Z,64.80
2022-08-26T21:12:35.479Z,64.90
2022-08-26T21:15:04.620Z,65.10
2022-08-26T21:17:33.245Z,65.20
2022-08-26T21:22:30.821Z,65.40
2022-08-26T21:24:59.180Z,65.70
2022-08-26T21:27:27.888Z,65.80
2022-08-26T21:29:58.116Z,66.00
2022-08-26T21:34:57.204Z,66.40
2022-08-26T21:37:26.793Z,66.40
2022-08-26T21:39:58.903Z,66.60
2022-08-26T21:42:32.956Z,66.70
2022-08-26T21:45:04.188Z,66.80
2022-08-26T21:47:32.887Z,66.90
2022-08-26T21:52:30.232Z,67.00
2022-08-26T21:54:59.820Z,67.00
2022-08-26T21:57:29.987Z,67.10
2022-08-26T21:59:58.976Z,67.10
2022-08-26T22:04:57.532Z,67.20
2022-08-26T22:07:26.090Z,67.20
2022-08-26T22:12:23.153Z,67.40
2022-08-26T22:14:51.604Z,67.50
2022-08-26T22:17:19.960Z,67.60
2022-08-26T22:19:50.087Z,67.70
2022-08-26T22:22:18.581Z,67.80
2022-08-26T22:24:46.969Z,67.90
2022-08-26T22:27:15.824Z,67.90
2022-08-26T22:29:46.490Z,68.00
2022-08-26T22:32:15.376Z,68.10
2022-08-26T22:37:13.873Z,68.30
2022-08-26T22:42:10.980Z,68.60
2022-08-26T22:47:24.989Z,68.80
2022-08-26T22:49:53.437Z,69.00
2022-08-26T22:52:23.168Z,69.20
2022-08-26T22:54:52.005Z,69.40
2022-08-26T22:57:20.797Z,69.50
2022-08-26T23:02:18.188Z,69.80
2022-08-26T23:04:46.652Z,70.00
2022-08-26T23:07:15.041Z,70.20
2022-08-26T23:09:45.098Z,70.40
2022-08-26T23:12:13.718Z,70.50
2022-08-26T23:17:14.322Z,70.70
2022-08-26T23:19:42.986Z,70.80
2022-08-26T23:22:11.573Z,70.90
2022-08-26T23:24:40.869Z,71.10
2022-08-26T23:27:11.232Z,71.30
2022-08-26T23:29:39.820Z,71.40
2022-08-26T23:32:08.359Z,71.50
2022-08-26T23:34:54.289Z,71.70
2022-08-26T23:37:23.261Z,71.80
2022-08-26T23:42:24.336Z,72.00
2022-08-26T23:47:25.173Z,72.20
2022-08-26T23:52:39.866Z,72.50
2022-08-26T23:55:10.640Z,72.70
2022-08-26T23:57:40.516Z,72.80
